Sanford, Maine
Current Conditions -  °F | °C
As of 6:55 AM on Monday 22 Dec 2014 (Local Time) from KSFM Reporting Station
Overcast Overcast  
Wind Chill: 22°   Ceiling: 5000
Heat Index: 28°   Visibility: 10mi
Dew Point: 23°   Wind: 6mph
Humidity: 80%   Direction: 360°N
Pressure: 30.4"   Gusts: NA
Location:  43.44°N, 70.77°W
Report Text: KSFM 221155Z AUTO 36005KT 10SM OVC050 M02/M05 A3040 RMK AO1 11010 21020 52010
Loading
Personal Weather Stations






























Interactive Weather Map New forecast layout! Learn more

10-Day Weather Forecast

Advertisements
Track Severe Weather on mobile